createdAt,value
2023-04-04T00:00:06.560Z,62.34
2023-04-04T00:02:35.320Z,63.35
2023-04-04T00:05:05.212Z,62.76
2023-04-04T00:07:33.625Z,62.56
2023-04-04T00:10:02.066Z,62.73
2023-04-04T00:12:34.848Z,62.35
2023-04-04T00:15:07.586Z,62.37
2023-04-04T00:17:36.015Z,63.02
2023-04-04T00:20:08.049Z,63.78
2023-04-04T00:22:40.398Z,62.94
2023-04-04T00:25:16.897Z,62.81
2023-04-04T00:27:49.236Z,63.03
2023-04-04T00:30:18.934Z,63.18
2023-04-04T00:32:49.530Z,64.19
2023-04-04T00:35:38.068Z,64.08
2023-04-04T00:38:14.065Z,64.56
2023-04-04T00:40:50.442Z,64.26
2023-04-04T00:43:20.608Z,65.05
2023-04-04T00:45:55.844Z,64.86
2023-04-04T00:48:27.990Z,64.79
2023-04-04T00:50:59.384Z,64.16
2023-04-04T00:53:34.765Z,63.43
2023-04-04T00:56:03.447Z,63.92
2023-04-04T00:58:40.089Z,63.83
2023-04-04T01:01:11.536Z,63.79
2023-04-04T01:03:43.298Z,63.86
2023-04-04T01:06:15.906Z,63.86
2023-04-04T01:08:44.514Z,64.11
2023-04-04T01:11:13.295Z,64.22
2023-04-04T01:13:46.940Z,64.55
2023-04-04T01:16:17.522Z,64.99
2023-04-04T01:18:48.027Z,64.90
2023-04-04T01:21:19.501Z,64.43
2023-04-04T01:23:53.183Z,64.50
2023-04-04T01:26:27.162Z,64.46
2023-04-04T01:28:55.280Z,64.28
2023-04-04T01:31:28.176Z,65.38
2023-04-04T01:34:00.856Z,65.33
2023-04-04T01:36:37.169Z,65.10
2023-04-04T01:39:12.990Z,64.65
2023-04-04T01:41:53.627Z,64.70
2023-04-04T01:44:22.755Z,64.55
2023-04-04T01:46:55.146Z,64.04
2023-04-04T01:49:28.948Z,64.22
2023-04-04T01:51:57.232Z,64.37
2023-04-04T01:54:28.377Z,63.97
2023-04-04T01:56:59.697Z,64.20
2023-04-04T01:59:27.529Z,63.96
2023-04-04T02:01:58.469Z,63.80
2023-04-04T02:04:29.299Z,64.04
2023-04-04T02:06:59.214Z,64.85
2023-04-04T02:09:29.056Z,65.68
2023-04-04T02:12:02.365Z,66.04
2023-04-04T02:14:31.332Z,66.08
2023-04-04T02:16:59.610Z,65.63
2023-04-04T02:19:31.681Z,65.42
2023-04-04T02:22:03.493Z,66.05
2023-04-04T02:24:33.464Z,65.52
2023-04-04T02:27:05.847Z,65.07
2023-04-04T02:29:38.483Z,64.64
2023-04-04T02:32:06.979Z,64.89
2023-04-04T02:34:35.533Z,64.92
2023-04-04T02:37:04.328Z,65.08
2023-04-04T02:39:32.421Z,65.07
2023-04-04T02:42:00.624Z,64.71
2023-04-04T02:44:30.257Z,64.35
2023-04-04T02:46:58.759Z,64.46
2023-04-04T02:49:27.991Z,63.67
2023-04-04T02:51:56.574Z,62.95
2023-04-04T02:54:41.509Z,63.22
2023-04-04T02:57:15.262Z,63.39
2023-04-04T02:59:49.388Z,62.98
2023-04-04T03:02:17.747Z,62.97
2023-04-04T03:04:48.558Z,62.62
2023-04-04T03:07:34.878Z,62.25
2023-04-04T03:10:03.129Z,62.14
2023-04-04T03:12:32.522Z,61.74
2023-04-04T03:15:02.207Z,62.33
2023-04-04T03:17:40.122Z,61.97
2023-04-04T03:20:16.594Z,61.92
2023-04-04T03:22:44.271Z,62.53
2023-04-04T03:25:12.077Z,61.75
2023-04-04T03:27:46.021Z,61.36
2023-04-04T03:30:17.840Z,61.69
2023-04-04T03:32:51.620Z,61.18
2023-04-04T03:35:22.402Z,62.00
2023-04-04T03:37:51.490Z,61.77
2023-04-04T03:40:25.343Z,62.22
2023-04-04T03:42:59.421Z,63.74
2023-04-04T03:45:39.921Z,63.68
2023-04-04T03:48:08.969Z,63.84
2023-04-04T03:50:47.167Z,64.39
2023-04-04T03:53:15.488Z,65.63
2023-04-04T03:55:43.867Z,65.71
2023-04-04T03:58:15.670Z,66.19
2023-04-04T04:00:45.565Z,66.71
2023-04-04T04:03:16.454Z,66.53
2023-04-04T04:05:45.262Z,66.64
2023-04-04T04:08:16.041Z,66.80
2023-04-04T04:10:44.434Z,66.01
2023-04-04T04:13:13.841Z,65.72
2023-04-04T04:15:41.613Z,66.00
2023-04-04T04:18:14.264Z,66.53
2023-04-04T04:20:42.713Z,66.92
2023-04-04T04:23:11.217Z,66.67
2023-04-04T04:25:41.309Z,66.32
2023-04-04T04:28:09.204Z,66.43
2023-04-04T04:30:36.891Z,66.20
2023-04-04T04:33:10.278Z,66.47
2023-04-04T04:35:40.456Z,66.21
2023-04-04T04:38:09.194Z,66.88
2023-04-04T04:40:38.758Z,66.32
2023-04-04T04:43:14.602Z,66.67
2023-04-04T04:45:43.024Z,65.95
2023-04-04T04:48:13.966Z,66.42
2023-04-04T04:50:46.313Z,65.99
2023-04-04T04:53:20.718Z,65.93
2023-04-04T04:55:49.972Z,66.90
2023-04-04T04:58:17.962Z,66.36
2023-04-04T05:00:46.101Z,66.02
2023-04-04T05:03:14.396Z,66.22
2023-04-04T05:05:48.195Z,66.62
2023-04-04T05:08:20.792Z,66.52
2023-04-04T05:10:49.419Z,66.88
2023-04-04T05:13:18.563Z,67.74
2023-04-04T05:15:49.403Z,67.43
2023-04-04T05:18:18.832Z,67.68
2023-04-04T05:20:53.831Z,67.13
2023-04-04T05:23:22.677Z,66.67
2023-04-04T05:25:54.100Z,66.54
2023-04-04T05:28:24.051Z,66.75
2023-04-04T05:30:53.613Z,66.54
2023-04-04T05:33:22.061Z,65.21
2023-04-04T05:35:50.814Z,64.05
2023-04-04T05:38:21.022Z,63.85
2023-04-04T05:40:48.849Z,63.09
2023-04-04T05:43:17.213Z,62.56
2023-04-04T05:45:53.922Z,61.93
2023-04-04T05:48:23.320Z,60.60
2023-04-04T05:50:59.370Z,60.67
2023-04-04T05:53:29.175Z,60.48
2023-04-04T05:56:01.434Z,60.17
2023-04-04T05:58:32.446Z,59.77
2023-04-04T06:01:01.835Z,59.67
2023-04-04T06:03:33.894Z,60.07
2023-04-04T06:06:25.538Z,59.71
2023-04-04T06:08:56.009Z,59.59
2023-04-04T06:11:30.852Z,60.26
2023-04-04T06:14:11.079Z,59.26
2023-04-04T06:16:39.856Z,58.82
2023-04-04T06:19:12.022Z,57.71
2023-04-04T06:21:40.333Z,57.37
2023-04-04T06:24:10.842Z,58.41
2023-04-04T06:26:39.885Z,58.10
2023-04-04T06:29:08.335Z,58.90
2023-04-04T06:31:36.659Z,58.92
2023-04-04T06:34:04.499Z,58.42
2023-04-04T06:36:39.595Z,57.72
2023-04-04T06:39:11.707Z,58.44
2023-04-04T06:41:41.330Z,58.50
2023-04-04T06:44:09.229Z,58.42
2023-04-04T06:46:40.464Z,58.68
2023-04-04T06:49:09.059Z,58.10
2023-04-04T06:51:37.867Z,58.08
2023-04-04T06:54:12.006Z,58.74
2023-04-04T06:56:42.421Z,58.95
2023-04-04T06:59:13.350Z,60.64
2023-04-04T07:01:44.958Z,60.31
2023-04-04T07:04:13.279Z,59.29
2023-04-04T07:06:41.249Z,58.68
2023-04-04T07:09:22.021Z,58.82
2023-04-04T07:11:58.844Z,60.42
2023-04-04T07:14:29.615Z,59.65
2023-04-04T07:17:07.950Z,59.80
2023-04-04T07:19:43.692Z,59.82
2023-04-04T07:22:15.699Z,59.37
2023-04-04T07:24:51.454Z,59.03
2023-04-04T07:27:22.731Z,59.25
2023-04-04T07:29:50.953Z,59.07
2023-04-04T07:32:24.271Z,58.20
2023-04-04T07:34:58.829Z,58.73
2023-04-04T07:37:31.858Z,57.18
2023-04-04T07:40:08.500Z,58.07
2023-04-04T07:42:52.689Z,58.27
2023-04-04T07:45:22.067Z,56.82
2023-04-04T07:47:52.972Z,56.31
2023-04-04T07:50:24.845Z,55.77
2023-04-04T07:52:56.351Z,56.21
2023-04-04T07:55:27.467Z,56.19
2023-04-04T07:57:59.864Z,56.74
2023-04-04T08:00:31.715Z,55.96
2023-04-04T08:03:04.566Z,55.23
2023-04-04T08:05:32.974Z,55.63
2023-04-04T08:08:03.753Z,55.33
2023-04-04T08:10:33.581Z,54.92
2023-04-04T08:13:07.339Z,54.78
2023-04-04T08:15:36.863Z,54.87
2023-04-04T08:18:13.233Z,54.20
2023-04-04T08:20:42.546Z,54.09
2023-04-04T08:23:14.199Z,53.28
2023-04-04T08:25:46.085Z,53.66
2023-04-04T08:28:16.399Z,53.85
2023-04-04T08:30:45.809Z,52.95
2023-04-04T08:33:14.446Z,52.91
2023-04-04T08:35:43.899Z,52.38
2023-04-04T08:38:17.013Z,51.82
2023-04-04T08:40:51.822Z,50.80
2023-04-04T08:43:23.872Z,51.54
2023-04-04T08:45:56.109Z,52.02
2023-04-04T08:48:32.876Z,51.08
2023-04-04T08:51:06.944Z,50.83
2023-04-04T08:53:40.374Z,50.69
2023-04-04T08:56:17.686Z,50.84
2023-04-04T08:58:47.467Z,50.88
2023-04-04T09:01:16.611Z,50.29
2023-04-04T09:03:47.369Z,50.41
2023-04-04T09:06:15.733Z,49.59
2023-04-04T09:08:47.340Z,48.68
2023-04-04T09:11:21.266Z,50.09
2023-04-04T09:14:01.791Z,50.63
2023-04-04T09:16:30.061Z,49.37
2023-04-04T09:19:01.300Z,49.04
2023-04-04T09:21:34.944Z,48.59
2023-04-04T09:24:05.207Z,47.89
2023-04-04T09:26:48.484Z,49.12
2023-04-04T09:29:20.934Z,48.10
2023-04-04T09:31:49.638Z,48.37
2023-04-04T09:34:19.360Z,46.92
2023-04-04T09:36:51.250Z,46.88
2023-04-04T09:39:23.528Z,48.56
2023-04-04T09:41:54.069Z,47.45
2023-04-04T09:44:45.071Z,48.23
2023-04-04T09:47:31.735Z,48.56
2023-04-04T09:50:01.413Z,47.09
2023-04-04T09:52:36.323Z,46.69
2023-04-04T09:55:07.744Z,48.72
2023-04-04T09:57:40.157Z,48.97
2023-04-04T10:00:11.365Z,49.22
2023-04-04T10:02:41.320Z,48.68
2023-04-04T10:05:11.262Z,49.15
2023-04-04T10:07:42.354Z,48.91
2023-04-04T10:10:11.781Z,48.62
2023-04-04T10:12:43.145Z,47.96
2023-04-04T10:15:14.269Z,48.41
2023-04-04T10:17:44.418Z,48.32
2023-04-04T10:20:12.935Z,48.19
2023-04-04T10:22:45.385Z,47.74
2023-04-04T10:25:18.533Z,48.72
2023-04-04T10:27:46.864Z,48.54
2023-04-04T10:30:18.939Z,47.59
2023-04-04T10:32:54.802Z,47.21
2023-04-04T10:35:24.260Z,47.15
2023-04-04T10:37:58.208Z,47.63
2023-04-04T10:40:33.349Z,46.49
2023-04-04T10:43:07.508Z,46.56
2023-04-04T10:45:42.695Z,46.89
2023-04-04T10:48:11.392Z,46.62
2023-04-04T10:50:40.468Z,46.93
2023-04-04T10:53:12.502Z,46.67
2023-04-04T10:55:45.067Z,45.23
2023-04-04T10:58:13.555Z,46.30
2023-04-04T11:00:55.701Z,47.05
2023-04-04T11:03:24.616Z,48.06
2023-04-04T11:06:06.148Z,47.56
2023-04-04T11:08:37.798Z,48.14
2023-04-04T11:11:16.071Z,46.96
2023-04-04T11:14:05.677Z,46.49
2023-04-04T11:16:48.101Z,45.46
2023-04-04T11:19:20.561Z,47.43
2023-04-04T11:21:51.190Z,47.54
2023-04-04T11:24:24.190Z,45.79
2023-04-04T11:27:01.512Z,47.34
2023-04-04T11:30:00.521Z,46.59
2023-04-04T11:32:50.195Z,45.43
2023-04-04T11:35:24.861Z,44.73
2023-04-04T11:38:03.730Z,45.50
2023-04-04T11:40:39.200Z,45.90
2023-04-04T11:43:21.223Z,45.69
2023-04-04T11:45:51.911Z,44.75
2023-04-04T11:48:26.719Z,45.67
2023-04-04T11:51:00.111Z,43.63
2023-04-04T11:53:29.488Z,43.21
2023-04-04T11:55:58.191Z,44.31
2023-04-04T11:58:28.201Z,43.94
2023-04-04T12:01:00.648Z,45.24
2023-04-04T12:03:50.527Z,46.02
2023-04-04T12:06:18.911Z,43.10
2023-04-04T12:08:50.662Z,42.67
2023-04-04T12:11:21.769Z,42.77
2023-04-04T12:13:52.328Z,43.63
2023-04-04T12:16:20.956Z,43.93
2023-04-04T12:19:02.430Z,42.63
2023-04-04T12:21:34.351Z,41.76
2023-04-04T12:24:05.595Z,42.00
2023-04-04T12:26:37.055Z,42.67
2023-04-04T12:29:05.904Z,43.21
2023-04-04T12:31:35.058Z,42.84
2023-04-04T12:34:08.833Z,42.06
2023-04-04T12:36:42.985Z,41.25
2023-04-04T12:39:12.778Z,43.39
2023-04-04T12:41:49.760Z,43.35
2023-04-04T12:44:29.510Z,42.57
2023-04-04T12:47:05.119Z,42.62
2023-04-04T12:49:44.128Z,40.95
2023-04-04T12:52:25.340Z,41.47
2023-04-04T12:55:06.964Z,42.26
2023-04-04T12:57:39.618Z,42.07
2023-04-04T13:00:19.009Z,41.73
2023-04-04T13:02:51.586Z,41.48
2023-04-04T13:05:26.058Z,41.73
2023-04-04T13:08:07.262Z,41.60
2023-04-04T13:11:04.676Z,41.04
2023-04-04T13:13:43.763Z,42.51
2023-04-04T13:16:16.795Z,40.33
2023-04-04T13:18:48.906Z,39.20
2023-04-04T13:21:26.635Z,41.01
2023-04-04T13:23:54.992Z,39.47
2023-04-04T13:26:23.459Z,40.67
2023-04-04T13:28:51.890Z,41.41
2023-04-04T13:31:24.340Z,41.24
2023-04-04T13:33:53.951Z,40.66
2023-04-04T13:36:24.340Z,41.37
2023-04-04T13:38:52.942Z,39.43
2023-04-04T13:41:23.702Z,41.06
2023-04-04T13:43:53.470Z,40.55
2023-04-04T13:46:25.359Z,39.83
2023-04-04T13:48:54.595Z,39.69
2023-04-04T13:51:25.162Z,39.45
2023-04-04T13:53:55.903Z,39.76
2023-04-04T13:56:27.800Z,38.56
2023-04-04T13:58:59.017Z,39.90
2023-04-04T14:01:27.493Z,41.44
2023-04-04T14:03:57.481Z,40.83
2023-04-04T14:06:31.546Z,40.14
2023-04-04T14:08:59.812Z,39.93
2023-04-04T14:11:32.513Z,39.62
2023-04-04T14:14:00.327Z,39.64
2023-04-04T14:16:30.277Z,39.79
2023-04-04T14:19:01.108Z,41.11
2023-04-04T14:21:31.328Z,42.08
2023-04-04T14:24:02.415Z,40.57
2023-04-04T14:26:33.369Z,40.72
2023-04-04T14:29:13.746Z,41.16
2023-04-04T14:31:47.130Z,40.19
2023-04-04T14:34:19.755Z,38.80
2023-04-04T14:36:52.873Z,39.28
2023-04-04T14:39:28.358Z,39.03
2023-04-04T14:41:56.966Z,39.74
2023-04-04T14:44:33.831Z,41.26
2023-04-04T14:47:04.936Z,40.36
2023-04-04T14:49:43.009Z,40.00
2023-04-04T14:52:13.096Z,38.84
2023-04-04T14:54:46.221Z,39.38
2023-04-04T14:57:14.746Z,39.85
2023-04-04T14:59:43.687Z,39.53
2023-04-04T15:02:12.882Z,39.05
2023-04-04T15:04:45.255Z,39.48
2023-04-04T15:07:30.120Z,38.93
2023-04-04T15:09:59.528Z,39.79
2023-04-04T15:12:30.328Z,39.48
2023-04-04T15:15:01.230Z,40.04
2023-04-04T15:17:31.324Z,40.48
2023-04-04T15:19:59.906Z,40.28
2023-04-04T15:22:35.085Z,39.95
2023-04-04T15:25:06.356Z,39.76
2023-04-04T15:27:36.598Z,40.76
2023-04-04T15:30:05.397Z,40.19
2023-04-04T15:32:39.845Z,41.33
2023-04-04T15:35:17.710Z,41.78
2023-04-04T15:37:50.894Z,41.29
2023-04-04T15:40:25.581Z,41.37
2023-04-04T15:42:54.090Z,42.05
2023-04-04T15:45:24.311Z,40.34
2023-04-04T15:47:53.093Z,40.80
2023-04-04T15:50:24.704Z,41.06
2023-04-04T15:52:54.466Z,42.71
2023-04-04T15:55:22.527Z,43.62
2023-04-04T15:57:58.869Z,45.12
2023-04-04T16:00:29.735Z,43.39
2023-04-04T16:03:02.178Z,43.24
2023-04-04T16:05:30.739Z,42.24
2023-04-04T16:08:08.790Z,41.69
2023-04-04T16:10:39.793Z,42.63
2023-04-04T16:13:14.919Z,43.19
2023-04-04T16:15:45.756Z,43.39
2023-04-04T16:18:16.077Z,44.43
2023-04-04T16:20:47.677Z,44.30
2023-04-04T16:23:18.217Z,43.56
2023-04-04T16:25:48.754Z,42.99
2023-04-04T16:28:16.913Z,43.24
2023-04-04T16:30:45.407Z,42.16
2023-04-04T16:33:15.879Z,42.79
2023-04-04T16:35:48.762Z,42.75
2023-04-04T16:38:21.279Z,43.05
2023-04-04T16:40:51.687Z,43.03
2023-04-04T16:43:19.786Z,42.52
2023-04-04T16:45:51.312Z,42.67
2023-04-04T16:48:24.679Z,45.00
2023-04-04T16:50:55.469Z,45.40
2023-04-04T16:53:25.337Z,45.55
2023-04-04T16:55:55.995Z,44.85
2023-04-04T16:58:27.366Z,43.84
2023-04-04T17:00:58.233Z,43.79
2023-04-04T17:03:26.573Z,45.14
2023-04-04T17:06:00.286Z,44.14
2023-04-04T17:08:33.180Z,43.92
2023-04-04T17:11:03.198Z,44.54
2023-04-04T17:13:38.287Z,45.21
2023-04-04T17:16:10.484Z,45.20
2023-04-04T17:18:41.190Z,44.94
2023-04-04T17:21:09.623Z,45.10
2023-04-04T17:23:43.694Z,45.08
2023-04-04T17:26:14.471Z,45.57
2023-04-04T17:28:42.713Z,45.39
2023-04-04T17:31:16.518Z,46.12
2023-04-04T17:33:45.394Z,45.81
2023-04-04T17:36:17.784Z,45.87
2023-04-04T17:38:53.198Z,46.06
2023-04-04T17:41:21.270Z,46.06
2023-04-04T17:43:52.470Z,45.84
2023-04-04T17:46:21.579Z,45.45
2023-04-04T17:48:49.603Z,46.69
2023-04-04T17:51:17.867Z,46.89
2023-04-04T17:53:48.302Z,47.49
2023-04-04T17:56:27.173Z,48.29
2023-04-04T17:59:03.785Z,48.22
2023-04-04T18:01:38.342Z,48.04
2023-04-04T18:04:14.185Z,48.76
2023-04-04T18:06:50.508Z,48.70
2023-04-04T18:09:21.645Z,48.81
2023-04-04T18:11:52.173Z,48.94
2023-04-04T18:14:20.586Z,49.34
2023-04-04T18:16:57.023Z,49.56
2023-04-04T18:19:27.830Z,49.80
2023-04-04T18:22:01.350Z,49.75
2023-04-04T18:24:32.492Z,49.89
2023-04-04T18:27:04.058Z,50.03
2023-04-04T18:29:43.776Z,50.00
2023-04-04T18:32:15.383Z,49.96
2023-04-04T18:34:47.570Z,49.77
2023-04-04T18:37:17.801Z,50.26
2023-04-04T18:39:49.314Z,50.25
2023-04-04T18:42:17.163Z,49.84
2023-04-04T18:44:45.984Z,49.79
2023-04-04T18:47:14.942Z,49.54
2023-04-04T18:49:44.628Z,49.56
2023-04-04T18:52:12.540Z,49.63
2023-04-04T18:54:40.760Z,50.03
2023-04-04T18:57:16.472Z,50.06
2023-04-04T18:59:47.546Z,50.30
2023-04-04T19:02:19.699Z,50.28
2023-04-04T19:04:57.970Z,50.23
2023-04-04T19:07:36.832Z,50.52
2023-04-04T19:10:10.958Z,50.65
2023-04-04T19:12:47.045Z,51.42
2023-04-04T19:15:15.691Z,50.91
2023-04-04T19:17:44.224Z,51.12
2023-04-04T19:20:13.991Z,50.94
2023-04-04T19:22:44.691Z,51.12
2023-04-04T19:25:14.274Z,51.15
2023-04-04T19:27:49.500Z,51.56
2023-04-04T19:30:36.606Z,51.31
2023-04-04T19:33:12.353Z,51.65
2023-04-04T19:35:56.041Z,51.60
2023-04-04T19:38:26.905Z,51.72
2023-04-04T19:41:03.779Z,52.29
2023-04-04T19:43:35.211Z,52.42
2023-04-04T19:46:08.865Z,51.37
2023-04-04T19:48:52.504Z,52.24
2023-04-04T19:51:49.368Z,52.34
2023-04-04T19:54:20.350Z,52.74
2023-04-04T19:56:53.227Z,53.25
2023-04-04T20:00:08.611Z,53.56
2023-04-04T20:02:59.064Z,53.09
2023-04-04T20:08:52.810Z,53.12
2023-04-04T20:11:27.653Z,52.88
2023-04-04T20:14:01.664Z,52.41
2023-04-04T20:16:42.216Z,52.23
2023-04-04T20:19:20.526Z,52.49
2023-04-04T20:21:54.886Z,52.14
2023-04-04T20:24:23.904Z,52.27
2023-04-04T20:26:55.089Z,51.92
2023-04-04T20:29:26.834Z,51.77
2023-04-04T20:31:59.360Z,51.79
2023-04-04T20:34:43.784Z,51.12
2023-04-04T20:37:22.405Z,51.53
2023-04-04T20:40:02.276Z,51.24
2023-04-04T20:42:40.684Z,50.88
2023-04-04T20:45:46.771Z,51.54
2023-04-04T20:48:39.893Z,51.17
2023-04-04T20:51:24.070Z,52.15
2023-04-04T20:53:53.241Z,50.52
2023-04-04T20:56:46.858Z,50.00
2023-04-04T20:59:38.458Z,49.36
2023-04-04T21:02:23.487Z,50.04
2023-04-04T21:04:52.724Z,49.11
2023-04-04T21:07:45.505Z,49.70
2023-04-04T21:10:47.787Z,49.37
2023-04-04T21:13:37.869Z,49.01
2023-04-04T21:16:09.678Z,49.74
2023-04-04T21:18:41.216Z,50.00
2023-04-04T21:21:19.169Z,50.34
2023-04-04T21:24:00.622Z,50.27
2023-04-04T21:26:40.002Z,50.52
2023-04-04T21:29:16.938Z,50.15
2023-04-04T21:31:48.751Z,50.68
2023-04-04T21:34:22.755Z,50.81
2023-04-04T21:36:56.855Z,51.05
2023-04-04T21:39:30.497Z,51.03
2023-04-04T21:42:16.012Z,50.51
2023-04-04T21:44:44.489Z,50.55
2023-04-04T21:47:13.926Z,50.70
2023-04-04T21:49:46.182Z,50.84
2023-04-04T21:52:14.261Z,51.58
2023-04-04T21:54:52.757Z,52.65
2023-04-04T21:57:23.734Z,52.78
2023-04-04T21:59:55.951Z,52.42
2023-04-04T22:02:43.985Z,52.85
2023-04-04T22:05:19.714Z,52.80
2023-04-04T22:07:51.542Z,52.19
2023-04-04T22:10:27.057Z,52.23
2023-04-04T22:12:59.542Z,52.67
2023-04-04T22:15:30.035Z,52.64
2023-04-04T22:18:05.288Z,52.81
2023-04-04T22:20:34.023Z,52.27
2023-04-04T22:23:09.599Z,52.08
2023-04-04T22:25:38.919Z,51.87
2023-04-04T22:28:08.421Z,51.44
2023-04-04T22:30:42.151Z,51.80
2023-04-04T22:33:13.745Z,51.81
2023-04-04T22:35:43.577Z,51.67
2023-04-04T22:38:20.173Z,51.74
2023-04-04T22:40:55.588Z,51.54
2023-04-04T22:43:28.902Z,52.13
2023-04-04T22:46:06.242Z,52.30
2023-04-04T22:48:43.467Z,52.29
2023-04-04T22:51:17.862Z,52.92
2023-04-04T22:53:51.779Z,52.92
2023-04-04T22:56:32.208Z,53.76
2023-04-04T22:59:02.384Z,52.60
2023-04-04T23:01:30.688Z,52.78
2023-04-04T23:03:58.794Z,52.26
2023-04-04T23:06:26.579Z,52.57
2023-04-04T23:08:54.273Z,52.01
2023-04-04T23:11:33.154Z,52.49
2023-04-04T23:14:10.448Z,52.22
2023-04-04T23:16:40.204Z,53.82
2023-04-04T23:19:14.418Z,54.22
2023-04-04T23:21:44.175Z,53.09
2023-04-04T23:24:17.290Z,52.59
2023-04-04T23:26:47.562Z,52.45
2023-04-04T23:29:15.627Z,53.11
2023-04-04T23:31:46.650Z,53.69
2023-04-04T23:34:19.757Z,53.18
2023-04-04T23:36:52.471Z,52.73
2023-04-04T23:39:20.257Z,52.64
2023-04-04T23:41:52.222Z,53.12
2023-04-04T23:44:22.377Z,53.70
2023-04-04T23:46:53.235Z,53.29
2023-04-04T23:49:26.260Z,53.14
2023-04-04T23:51:55.384Z,53.24
2023-04-04T23:54:28.864Z,53.99
2023-04-04T23:56:58.497Z,52.80
2023-04-04T23:59:31.188Z,52.75
